sensor_id;sensor_type;location;lat;lon;timestamp;P1;durP1;ratioP1;P2;durP2;ratioP2
71343;SDS011;59146;43.850;25.948;2022-12-07T00:00:52;75.05;;;28.10;;
71343;SDS011;59146;43.850;25.948;2022-12-07T00:03:18;67.43;;;24.80;;
71343;SDS011;59146;43.850;25.948;2022-12-07T00:05:44;58.30;;;22.45;;
71343;SDS011;59146;43.850;25.948;2022-12-07T00:08:09;60.83;;;24.15;;
71343;SDS011;59146;43.850;25.948;2022-12-07T00:10:34;48.42;;;20.92;;
71343;SDS011;59146;43.850;25.948;2022-12-07T00:13:00;51.42;;;22.35;;
71343;SDS011;59146;43.850;25.948;2022-12-07T00:15:26;54.53;;;23.30;;
71343;SDS011;59146;43.850;25.948;2022-12-07T00:17:51;54.17;;;22.27;;
71343;SDS011;59146;43.850;25.948;2022-12-07T00:20:17;64.53;;;24.70;;
71343;SDS011;59146;43.850;25.948;2022-12-07T00:22:42;70.20;;;24.77;;
71343;SDS011;59146;43.850;25.948;2022-12-07T00:25:08;68.05;;;24.83;;
71343;SDS011;59146;43.850;25.948;2022-12-07T00:27:33;60.60;;;26.17;;
71343;SDS011;59146;43.850;25.948;2022-12-07T00:29:58;70.13;;;25.58;;
71343;SDS011;59146;43.850;25.948;2022-12-07T00:32:24;69.45;;;25.45;;
71343;SDS011;59146;43.850;25.948;2022-12-07T00:34:49;74.07;;;25.25;;
71343;SDS011;59146;43.850;25.948;2022-12-07T00:37:15;60.25;;;23.60;;
71343;SDS011;59146;43.850;25.948;2022-12-07T00:39:40;71.75;;;24.48;;
71343;SDS011;59146;43.850;25.948;2022-12-07T00:42:05;75.70;;;23.67;;
71343;SDS011;59146;43.850;25.948;2022-12-07T00:44:31;65.90;;;25.02;;
71343;SDS011;59146;43.850;25.948;2022-12-07T00:46:56;72.97;;;26.15;;
71343;SDS011;59146;43.850;25.948;2022-12-07T00:49:22;97.65;;;25.85;;
71343;SDS011;59146;43.850;25.948;2022-12-07T00:51:48;77.85;;;26.30;;
71343;SDS011;59146;43.850;25.948;2022-12-07T00:54:14;67.20;;;25.15;;
71343;SDS011;59146;43.850;25.948;2022-12-07T00:56:39;78.70;;;26.13;;
71343;SDS011;59146;43.850;25.948;2022-12-07T00:59:05;63.40;;;24.20;;
71343;SDS011;59146;43.850;25.948;2022-12-07T01:01:32;65.47;;;24.50;;
71343;SDS011;59146;43.850;25.948;2022-12-07T01:03:59;64.28;;;24.80;;
71343;SDS011;59146;43.850;25.948;2022-12-07T01:06:26;71.95;;;26.58;;
71343;SDS011;59146;43.850;25.948;2022-12-07T01:08:52;60.20;;;24.02;;
71343;SDS011;59146;43.850;25.948;2022-12-07T01:11:19;62.17;;;25.13;;
71343;SDS011;59146;43.850;25.948;2022-12-07T01:13:48;64.72;;;23.33;;
71343;SDS011;59146;43.850;25.948;2022-12-07T01:16:15;61.13;;;24.67;;
71343;SDS011;59146;43.850;25.948;2022-12-07T01:18:41;70.70;;;25.90;;
71343;SDS011;59146;43.850;25.948;2022-12-07T01:21:11;53.47;;;23.63;;
71343;SDS011;59146;43.850;25.948;2022-12-07T01:23:39;64.57;;;26.27;;
71343;SDS011;59146;43.850;25.948;2022-12-07T01:26:06;61.67;;;24.85;;
71343;SDS011;59146;43.850;25.948;2022-12-07T01:28:35;66.35;;;26.67;;
71343;SDS011;59146;43.850;25.948;2022-12-07T01:31:04;65.10;;;24.85;;
71343;SDS011;59146;43.850;25.948;2022-12-07T01:33:33;63.70;;;25.85;;
71343;SDS011;59146;43.850;25.948;2022-12-07T01:36:13;54.15;;;23.85;;
71343;SDS011;59146;43.850;25.948;2022-12-07T01:38:39;61.28;;;25.73;;
71343;SDS011;59146;43.850;25.948;2022-12-07T01:41:04;61.88;;;25.70;;
71343;SDS011;59146;43.850;25.948;2022-12-07T01:43:31;66.30;;;26.10;;
71343;SDS011;59146;43.850;25.948;2022-12-07T01:45:57;64.28;;;25.73;;
71343;SDS011;59146;43.850;25.948;2022-12-07T01:48:24;68.90;;;26.20;;
71343;SDS011;59146;43.850;25.948;2022-12-07T01:50:56;58.80;;;23.92;;
71343;SDS011;59146;43.850;25.948;2022-12-07T01:53:28;60.63;;;25.20;;
71343;SDS011;59146;43.850;25.948;2022-12-07T01:55:55;57.53;;;23.25;;
71343;SDS011;59146;43.850;25.948;2022-12-07T01:58:21;62.08;;;23.45;;
71343;SDS011;59146;43.850;25.948;2022-12-07T02:00:47;53.22;;;22.05;;
71343;SDS011;59146;43.850;25.948;2022-12-07T02:03:18;51.90;;;23.77;;
71343;SDS011;59146;43.850;25.948;2022-12-07T02:05:49;50.15;;;22.23;;
71343;SDS011;59146;43.850;25.948;2022-12-07T02:08:15;53.10;;;23.42;;
71343;SDS011;59146;43.850;25.948;2022-12-07T02:10:42;58.40;;;22.67;;
71343;SDS011;59146;43.850;25.948;2022-12-07T02:18:33;65.35;;;24.02;;
71343;SDS011;59146;43.850;25.948;2022-12-07T02:24:15;77.07;;;25.67;;
71343;SDS011;59146;43.850;25.948;2022-12-07T02:32:26;83.10;;;26.67;;
71343;SDS011;59146;43.850;25.948;2022-12-07T02:35:06;88.15;;;27.25;;
71343;SDS011;59146;43.850;25.948;2022-12-07T02:42:40;162.43;;;28.38;;
71343;SDS011;59146;43.850;25.948;2022-12-07T02:45:11;118.28;;;28.60;;
71343;SDS011;59146;43.850;25.948;2022-12-07T02:47:40;238.65;;;33.65;;
71343;SDS011;59146;43.850;25.948;2022-12-07T02:50:08;195.90;;;33.13;;
71343;SDS011;59146;43.850;25.948;2022-12-07T02:52:34;160.73;;;29.38;;
71343;SDS011;59146;43.850;25.948;2022-12-07T02:54:59;120.75;;;30.15;;
71343;SDS011;59146;43.850;25.948;2022-12-07T02:57:28;225.15;;;32.75;;
71343;SDS011;59146;43.850;25.948;2022-12-07T03:00:03;331.38;;;36.33;;
71343;SDS011;59146;43.850;25.948;2022-12-07T03:05:35;135.50;;;29.80;;
71343;SDS011;59146;43.850;25.948;2022-12-07T03:08:15;125.35;;;29.83;;
71343;SDS011;59146;43.850;25.948;2022-12-07T03:11:06;113.40;;;29.13;;
71343;SDS011;59146;43.850;25.948;2022-12-07T03:16:40;141.07;;;29.70;;
71343;SDS011;59146;43.850;25.948;2022-12-07T03:19:11;267.67;;;34.63;;
71343;SDS011;59146;43.850;25.948;2022-12-07T03:21:41;276.73;;;32.60;;
71343;SDS011;59146;43.850;25.948;2022-12-07T03:24:15;363.58;;;38.83;;
71343;SDS011;59146;43.850;25.948;2022-12-07T03:26:54;186.45;;;30.48;;
71343;SDS011;59146;43.850;25.948;2022-12-07T03:29:31;226.73;;;32.58;;
71343;SDS011;59146;43.850;25.948;2022-12-07T03:37:40;183.85;;;31.88;;
71343;SDS011;59146;43.850;25.948;2022-12-07T03:42:36;141.43;;;30.92;;
71343;SDS011;59146;43.850;25.948;2022-12-07T03:45:02;134.00;;;31.98;;
71343;SDS011;59146;43.850;25.948;2022-12-07T03:47:35;155.65;;;31.05;;
71343;SDS011;59146;43.850;25.948;2022-12-07T03:50:13;155.75;;;31.75;;
71343;SDS011;59146;43.850;25.948;2022-12-07T03:52:56;315.65;;;35.88;;
71343;SDS011;59146;43.850;25.948;2022-12-07T03:55:32;299.65;;;35.65;;
71343;SDS011;59146;43.850;25.948;2022-12-07T03:58:02;123.93;;;29.50;;
71343;SDS011;59146;43.850;25.948;2022-12-07T04:00:34;131.88;;;34.38;;
71343;SDS011;59146;43.850;25.948;2022-12-07T04:02:59;123.00;;;34.97;;
71343;SDS011;59146;43.850;25.948;2022-12-07T04:05:25;113.70;;;31.95;;
71343;SDS011;59146;43.850;25.948;2022-12-07T04:07:50;105.03;;;33.45;;
71343;SDS011;59146;43.850;25.948;2022-12-07T04:10:16;101.80;;;31.88;;
71343;SDS011;59146;43.850;25.948;2022-12-07T04:12:42;114.20;;;34.65;;
71343;SDS011;59146;43.850;25.948;2022-12-07T04:15:08;104.18;;;32.47;;
71343;SDS011;59146;43.850;25.948;2022-12-07T04:17:33;115.78;;;33.05;;
71343;SDS011;59146;43.850;25.948;2022-12-07T04:19:59;105.50;;;33.35;;
71343;SDS011;59146;43.850;25.948;2022-12-07T04:22:24;95.32;;;30.60;;
71343;SDS011;59146;43.850;25.948;2022-12-07T04:24:50;95.88;;;32.50;;
71343;SDS011;59146;43.850;25.948;2022-12-07T04:27:15;98.22;;;31.00;;
71343;SDS011;59146;43.850;25.948;2022-12-07T04:29:40;96.70;;;31.15;;
71343;SDS011;59146;43.850;25.948;2022-12-07T04:32:06;109.88;;;32.15;;
71343;SDS011;59146;43.850;25.948;2022-12-07T04:34:31;94.97;;;32.75;;
71343;SDS011;59146;43.850;25.948;2022-12-07T04:36:57;87.55;;;32.40;;
71343;SDS011;59146;43.850;25.948;2022-12-07T04:41:50;103.53;;;32.05;;
71343;SDS011;59146;43.850;25.948;2022-12-07T04:44:16;92.25;;;31.40;;
71343;SDS011;59146;43.850;25.948;2022-12-07T04:46:42;95.72;;;32.45;;
71343;SDS011;59146;43.850;25.948;2022-12-07T04:49:08;87.78;;;32.63;;
71343;SDS011;59146;43.850;25.948;2022-12-07T04:51:34;80.32;;;30.90;;
71343;SDS011;59146;43.850;25.948;2022-12-07T04:54:00;88.18;;;31.10;;
71343;SDS011;59146;43.850;25.948;2022-12-07T04:56:25;80.50;;;29.95;;
71343;SDS011;59146;43.850;25.948;2022-12-07T04:58:51;76.47;;;29.20;;
71343;SDS011;59146;43.850;25.948;2022-12-07T05:01:18;80.80;;;27.98;;
71343;SDS011;59146;43.850;25.948;2022-12-07T05:03:44;82.68;;;29.73;;
71343;SDS011;59146;43.850;25.948;2022-12-07T05:06:10;86.05;;;30.73;;
71343;SDS011;59146;43.850;25.948;2022-12-07T05:08:36;84.10;;;31.85;;
71343;SDS011;59146;43.850;25.948;2022-12-07T05:11:02;93.60;;;30.25;;
71343;SDS011;59146;43.850;25.948;2022-12-07T05:13:28;85.18;;;31.30;;
71343;SDS011;59146;43.850;25.948;2022-12-07T05:15:53;94.13;;;33.22;;
71343;SDS011;59146;43.850;25.948;2022-12-07T05:18:19;85.55;;;33.00;;
71343;SDS011;59146;43.850;25.948;2022-12-07T05:20:44;90.53;;;33.17;;
71343;SDS011;59146;43.850;25.948;2022-12-07T05:23:10;85.75;;;30.83;;
71343;SDS011;59146;43.850;25.948;2022-12-07T05:25:36;90.57;;;30.88;;
71343;SDS011;59146;43.850;25.948;2022-12-07T05:28:02;83.82;;;31.08;;
71343;SDS011;59146;43.850;25.948;2022-12-07T05:30:27;88.78;;;31.23;;
71343;SDS011;59146;43.850;25.948;2022-12-07T05:32:54;91.18;;;31.85;;
71343;SDS011;59146;43.850;25.948;2022-12-07T05:35:20;78.93;;;31.98;;
71343;SDS011;59146;43.850;25.948;2022-12-07T05:37:45;87.15;;;32.38;;
71343;SDS011;59146;43.850;25.948;2022-12-07T05:40:11;73.63;;;29.08;;
71343;SDS011;59146;43.850;25.948;2022-12-07T05:42:37;82.00;;;30.60;;
71343;SDS011;59146;43.850;25.948;2022-12-07T05:45:03;75.25;;;29.90;;
71343;SDS011;59146;43.850;25.948;2022-12-07T05:47:29;78.40;;;31.20;;
71343;SDS011;59146;43.850;25.948;2022-12-07T05:49:54;74.28;;;29.80;;
71343;SDS011;59146;43.850;25.948;2022-12-07T05:52:20;77.07;;;30.77;;
71343;SDS011;59146;43.850;25.948;2022-12-07T05:54:46;75.70;;;31.55;;
71343;SDS011;59146;43.850;25.948;2022-12-07T05:57:11;77.13;;;29.85;;
71343;SDS011;59146;43.850;25.948;2022-12-07T05:59:37;80.70;;;32.40;;
71343;SDS011;59146;43.850;25.948;2022-12-07T06:02:03;82.43;;;33.72;;
71343;SDS011;59146;43.850;25.948;2022-12-07T06:04:32;81.45;;;32.45;;
71343;SDS011;59146;43.850;25.948;2022-12-07T06:06:59;89.80;;;33.53;;
71343;SDS011;59146;43.850;25.948;2022-12-07T06:09:26;79.68;;;31.55;;
71343;SDS011;59146;43.850;25.948;2022-12-07T06:11:53;78.75;;;32.65;;
71343;SDS011;59146;43.850;25.948;2022-12-07T06:14:38;81.53;;;32.17;;
71343;SDS011;59146;43.850;25.948;2022-12-07T06:17:04;70.65;;;30.13;;
71343;SDS011;59146;43.850;25.948;2022-12-07T06:19:29;71.47;;;29.00;;
71343;SDS011;59146;43.850;25.948;2022-12-07T06:21:55;73.95;;;28.83;;
71343;SDS011;59146;43.850;25.948;2022-12-07T06:24:21;59.60;;;26.73;;
71343;SDS011;59146;43.850;25.948;2022-12-07T06:26:47;62.08;;;27.88;;
71343;SDS011;59146;43.850;25.948;2022-12-07T06:29:13;60.30;;;27.52;;
71343;SDS011;59146;43.850;25.948;2022-12-07T06:31:38;59.00;;;26.10;;
71343;SDS011;59146;43.850;25.948;2022-12-07T06:34:05;57.33;;;25.75;;
71343;SDS011;59146;43.850;25.948;2022-12-07T06:36:34;53.53;;;25.95;;
71343;SDS011;59146;43.850;25.948;2022-12-07T06:38:59;57.20;;;24.60;;
71343;SDS011;59146;43.850;25.948;2022-12-07T06:41:25;46.65;;;22.38;;
71343;SDS011;59146;43.850;25.948;2022-12-07T06:43:50;40.25;;;21.02;;
71343;SDS011;59146;43.850;25.948;2022-12-07T06:46:16;40.75;;;20.92;;
71343;SDS011;59146;43.850;25.948;2022-12-07T06:48:41;39.75;;;17.75;;
71343;SDS011;59146;43.850;25.948;2022-12-07T06:51:08;37.33;;;18.60;;
71343;SDS011;59146;43.850;25.948;2022-12-07T06:53:34;39.65;;;18.55;;
71343;SDS011;59146;43.850;25.948;2022-12-07T06:56:00;38.38;;;20.05;;
71343;SDS011;59146;43.850;25.948;2022-12-07T06:58:26;42.50;;;20.73;;
71343;SDS011;59146;43.850;25.948;2022-12-07T07:00:51;40.40;;;20.17;;
71343;SDS011;59146;43.850;25.948;2022-12-07T07:03:17;38.00;;;19.10;;
71343;SDS011;59146;43.850;25.948;2022-12-07T07:05:43;38.72;;;20.40;;
71343;SDS011;59146;43.850;25.948;2022-12-07T07:08:08;45.85;;;20.65;;
71343;SDS011;59146;43.850;25.948;2022-12-07T07:10:34;39.28;;;19.30;;
71343;SDS011;59146;43.850;25.948;2022-12-07T07:13:01;47.38;;;20.65;;
71343;SDS011;59146;43.850;25.948;2022-12-07T07:15:27;40.58;;;20.27;;
71343;SDS011;59146;43.850;25.948;2022-12-07T07:17:52;39.15;;;19.85;;
71343;SDS011;59146;43.850;25.948;2022-12-07T07:20:18;38.35;;;18.70;;
71343;SDS011;59146;43.850;25.948;2022-12-07T07:22:44;41.42;;;20.10;;
71343;SDS011;59146;43.850;25.948;2022-12-07T07:25:09;42.25;;;20.88;;
71343;SDS011;59146;43.850;25.948;2022-12-07T07:27:35;43.97;;;20.65;;
71343;SDS011;59146;43.850;25.948;2022-12-07T07:30:00;43.38;;;20.55;;
71343;SDS011;59146;43.850;25.948;2022-12-07T07:32:25;40.13;;;20.30;;
71343;SDS011;59146;43.850;25.948;2022-12-07T07:34:51;43.45;;;21.30;;
71343;SDS011;59146;43.850;25.948;2022-12-07T07:37:16;42.88;;;22.08;;
71343;SDS011;59146;43.850;25.948;2022-12-07T07:39:43;40.83;;;19.70;;
71343;SDS011;59146;43.850;25.948;2022-12-07T07:42:08;43.28;;;22.42;;
71343;SDS011;59146;43.850;25.948;2022-12-07T07:44:34;44.05;;;22.27;;
71343;SDS011;59146;43.850;25.948;2022-12-07T07:47:00;57.35;;;27.30;;
71343;SDS011;59146;43.850;25.948;2022-12-07T07:49:25;45.78;;;22.67;;
71343;SDS011;59146;43.850;25.948;2022-12-07T07:51:51;46.15;;;25.55;;
71343;SDS011;59146;43.850;25.948;2022-12-07T07:54:17;38.92;;;22.92;;
71343;SDS011;59146;43.850;25.948;2022-12-07T07:56:43;36.22;;;18.38;;
71343;SDS011;59146;43.850;25.948;2022-12-07T07:59:08;36.05;;;18.70;;
71343;SDS011;59146;43.850;25.948;2022-12-07T08:01:34;29.45;;;16.92;;
71343;SDS011;59146;43.850;25.948;2022-12-07T08:04:00;29.52;;;16.67;;
71343;SDS011;59146;43.850;25.948;2022-12-07T08:06:25;29.40;;;16.52;;
71343;SDS011;59146;43.850;25.948;2022-12-07T08:08:51;31.30;;;16.67;;
71343;SDS011;59146;43.850;25.948;2022-12-07T08:11:17;36.67;;;18.85;;
71343;SDS011;59146;43.850;25.948;2022-12-07T08:13:44;40.30;;;19.80;;
71343;SDS011;59146;43.850;25.948;2022-12-07T08:16:11;34.63;;;18.40;;
71343;SDS011;59146;43.850;25.948;2022-12-07T08:18:37;35.35;;;18.75;;
71343;SDS011;59146;43.850;25.948;2022-12-07T08:21:05;36.47;;;19.55;;
71343;SDS011;59146;43.850;25.948;2022-12-07T08:23:31;38.97;;;20.30;;
71343;SDS011;59146;43.850;25.948;2022-12-07T08:26:04;37.65;;;19.08;;
71343;SDS011;59146;43.850;25.948;2022-12-07T08:28:31;38.72;;;19.90;;
71343;SDS011;59146;43.850;25.948;2022-12-07T08:31:04;35.45;;;18.52;;
71343;SDS011;59146;43.850;25.948;2022-12-07T08:33:31;33.13;;;18.02;;
71343;SDS011;59146;43.850;25.948;2022-12-07T08:36:01;33.00;;;17.92;;
71343;SDS011;59146;43.850;25.948;2022-12-07T08:38:28;34.90;;;19.20;;
71343;SDS011;59146;43.850;25.948;2022-12-07T08:40:56;37.33;;;21.10;;
71343;SDS011;59146;43.850;25.948;2022-12-07T08:43:23;40.15;;;20.23;;
71343;SDS011;59146;43.850;25.948;2022-12-07T08:45:50;36.85;;;21.92;;
71343;SDS011;59146;43.850;25.948;2022-12-07T08:48:27;42.65;;;21.70;;
71343;SDS011;59146;43.850;25.948;2022-12-07T08:50:53;37.35;;;20.73;;
71343;SDS011;59146;43.850;25.948;2022-12-07T08:53:18;38.65;;;20.38;;
71343;SDS011;59146;43.850;25.948;2022-12-07T08:55:44;41.50;;;21.83;;
71343;SDS011;59146;43.850;25.948;2022-12-07T08:58:12;38.63;;;22.33;;
71343;SDS011;59146;43.850;25.948;2022-12-07T09:00:37;38.78;;;20.58;;
71343;SDS011;59146;43.850;25.948;2022-12-07T09:03:03;39.35;;;21.50;;
71343;SDS011;59146;43.850;25.948;2022-12-07T09:05:28;45.65;;;22.23;;
71343;SDS011;59146;43.850;25.948;2022-12-07T09:07:55;38.42;;;21.35;;
71343;SDS011;59146;43.850;25.948;2022-12-07T09:10:24;45.88;;;26.27;;
71343;SDS011;59146;43.850;25.948;2022-12-07T09:12:50;52.33;;;24.30;;
71343;SDS011;59146;43.850;25.948;2022-12-07T09:15:16;40.03;;;22.27;;
71343;SDS011;59146;43.850;25.948;2022-12-07T09:17:41;40.97;;;22.90;;
71343;SDS011;59146;43.850;25.948;2022-12-07T09:20:07;41.60;;;22.40;;
71343;SDS011;59146;43.850;25.948;2022-12-07T09:22:33;36.45;;;21.25;;
71343;SDS011;59146;43.850;25.948;2022-12-07T09:24:59;37.67;;;21.70;;
71343;SDS011;59146;43.850;25.948;2022-12-07T09:27:25;40.00;;;23.58;;
71343;SDS011;59146;43.850;25.948;2022-12-07T09:29:51;34.92;;;20.50;;
71343;SDS011;59146;43.850;25.948;2022-12-07T09:32:17;34.83;;;18.83;;
71343;SDS011;59146;43.850;25.948;2022-12-07T09:34:42;28.75;;;17.73;;
71343;SDS011;59146;43.850;25.948;2022-12-07T09:37:08;31.48;;;17.90;;
71343;SDS011;59146;43.850;25.948;2022-12-07T09:39:34;27.67;;;17.30;;
71343;SDS011;59146;43.850;25.948;2022-12-07T09:41:59;29.90;;;18.17;;
71343;SDS011;59146;43.850;25.948;2022-12-07T09:44:29;31.20;;;16.58;;
71343;SDS011;59146;43.850;25.948;2022-12-07T09:46:54;28.63;;;17.23;;
71343;SDS011;59146;43.850;25.948;2022-12-07T09:49:22;27.00;;;17.00;;
71343;SDS011;59146;43.850;25.948;2022-12-07T09:54:52;26.42;;;17.52;;
71343;SDS011;59146;43.850;25.948;2022-12-07T09:57:19;31.05;;;18.08;;
71343;SDS011;59146;43.850;25.948;2022-12-07T09:59:55;27.38;;;16.45;;
71343;SDS011;59146;43.850;25.948;2022-12-07T10:04:58;23.50;;;15.40;;
71343;SDS011;59146;43.850;25.948;2022-12-07T10:07:24;28.65;;;18.08;;
71343;SDS011;59146;43.850;25.948;2022-12-07T10:09:49;26.95;;;16.75;;
71343;SDS011;59146;43.850;25.948;2022-12-07T10:12:15;26.75;;;17.15;;
71343;SDS011;59146;43.850;25.948;2022-12-07T10:14:52;27.38;;;15.07;;
71343;SDS011;59146;43.850;25.948;2022-12-07T10:19:52;24.25;;;14.85;;
71343;SDS011;59146;43.850;25.948;2022-12-07T10:22:38;21.20;;;14.57;;
71343;SDS011;59146;43.850;25.948;2022-12-07T10:25:18;25.55;;;16.15;;
71343;SDS011;59146;43.850;25.948;2022-12-07T10:27:56;24.35;;;14.82;;
71343;SDS011;59146;43.850;25.948;2022-12-07T10:30:23;29.30;;;16.65;;
71343;SDS011;59146;43.850;25.948;2022-12-07T10:32:48;27.60;;;16.92;;
71343;SDS011;59146;43.850;25.948;2022-12-07T10:35:24;27.70;;;16.48;;
71343;SDS011;59146;43.850;25.948;2022-12-07T10:37:55;25.13;;;12.93;;
71343;SDS011;59146;43.850;25.948;2022-12-07T10:40:33;33.17;;;18.33;;
71343;SDS011;59146;43.850;25.948;2022-12-07T10:43:04;42.70;;;17.20;;
71343;SDS011;59146;43.850;25.948;2022-12-07T10:45:29;34.33;;;18.85;;
71343;SDS011;59146;43.850;25.948;2022-12-07T10:48:12;30.15;;;18.17;;
71343;SDS011;59146;43.850;25.948;2022-12-07T11:04:24;28.85;;;18.05;;
71343;SDS011;59146;43.850;25.948;2022-12-07T11:17:15;29.73;;;19.65;;
71343;SDS011;59146;43.850;25.948;2022-12-07T11:34:34;31.55;;;20.55;;
71343;SDS011;59146;43.850;25.948;2022-12-07T11:36:53;31.95;;;20.25;;
71343;SDS011;59146;43.850;25.948;2022-12-07T11:41:47;29.40;;;20.02;;
71343;SDS011;59146;43.850;25.948;2022-12-07T11:46:50;32.55;;;22.25;;
71343;SDS011;59146;43.850;25.948;2022-12-07T11:49:21;34.30;;;22.25;;
71343;SDS011;59146;43.850;25.948;2022-12-07T11:52:02;33.97;;;20.17;;
71343;SDS011;59146;43.850;25.948;2022-12-07T11:54:39;46.08;;;22.15;;
71343;SDS011;59146;43.850;25.948;2022-12-07T11:57:15;36.58;;;20.63;;
71343;SDS011;59146;43.850;25.948;2022-12-07T11:59:46;35.60;;;21.10;;
71343;SDS011;59146;43.850;25.948;2022-12-07T12:02:22;46.53;;;20.38;;
71343;SDS011;59146;43.850;25.948;2022-12-07T12:07:41;36.70;;;21.02;;
71343;SDS011;59146;43.850;25.948;2022-12-07T12:22:06;35.08;;;22.08;;
71343;SDS011;59146;43.850;25.948;2022-12-07T12:24:39;35.10;;;20.52;;
71343;SDS011;59146;43.850;25.948;2022-12-07T12:27:27;51.83;;;22.45;;
71343;SDS011;59146;43.850;25.948;2022-12-07T12:30:06;32.80;;;20.45;;
71343;SDS011;59146;43.850;25.948;2022-12-07T12:32:49;37.60;;;21.15;;
71343;SDS011;59146;43.850;25.948;2022-12-07T12:35:29;43.05;;;21.90;;
71343;SDS011;59146;43.850;25.948;2022-12-07T12:40:49;40.58;;;22.90;;
71343;SDS011;59146;43.850;25.948;2022-12-07T12:48:55;38.30;;;22.17;;
71343;SDS011;59146;43.850;25.948;2022-12-07T12:51:40;42.22;;;22.92;;
71343;SDS011;59146;43.850;25.948;2022-12-07T12:54:28;48.83;;;23.38;;
71343;SDS011;59146;43.850;25.948;2022-12-07T12:57:11;41.63;;;23.27;;
71343;SDS011;59146;43.850;25.948;2022-12-07T12:59:42;41.42;;;23.23;;
71343;SDS011;59146;43.850;25.948;2022-12-07T13:10:45;38.78;;;21.75;;
71343;SDS011;59146;43.850;25.948;2022-12-07T13:23:18;36.80;;;22.23;;
71343;SDS011;59146;43.850;25.948;2022-12-07T13:26:35;45.75;;;23.63;;
71343;SDS011;59146;43.850;25.948;2022-12-07T13:28:38;45.10;;;28.17;;
71343;SDS011;59146;43.850;25.948;2022-12-07T13:33:49;55.50;;;26.35;;
71343;SDS011;59146;43.850;25.948;2022-12-07T13:36:20;49.95;;;29.88;;
71343;SDS011;59146;43.850;25.948;2022-12-07T13:38:49;59.00;;;30.58;;
71343;SDS011;59146;43.850;25.948;2022-12-07T13:41:18;50.25;;;27.48;;
71343;SDS011;59146;43.850;25.948;2022-12-07T13:43:49;56.42;;;31.05;;
71343;SDS011;59146;43.850;25.948;2022-12-07T13:46:15;64.13;;;34.72;;
71343;SDS011;59146;43.850;25.948;2022-12-07T13:48:48;59.45;;;31.67;;
71343;SDS011;59146;43.850;25.948;2022-12-07T13:51:22;62.42;;;32.85;;
71343;SDS011;59146;43.850;25.948;2022-12-07T13:53:54;68.03;;;33.78;;
71343;SDS011;59146;43.850;25.948;2022-12-07T13:56:40;62.17;;;30.98;;
71343;SDS011;59146;43.850;25.948;2022-12-07T13:59:14;81.75;;;37.17;;
71343;SDS011;59146;43.850;25.948;2022-12-07T14:01:43;50.53;;;29.85;;
71343;SDS011;59146;43.850;25.948;2022-12-07T14:06:50;59.03;;;30.00;;
71343;SDS011;59146;43.850;25.948;2022-12-07T14:11:44;55.47;;;31.33;;
71343;SDS011;59146;43.850;25.948;2022-12-07T14:14:10;58.83;;;31.50;;
71343;SDS011;59146;43.850;25.948;2022-12-07T14:16:41;67.63;;;34.90;;
71343;SDS011;59146;43.850;25.948;2022-12-07T14:19:41;69.63;;;34.58;;
71343;SDS011;59146;43.850;25.948;2022-12-07T14:22:55;69.30;;;36.30;;
71343;SDS011;59146;43.850;25.948;2022-12-07T14:27:47;58.55;;;33.17;;
71343;SDS011;59146;43.850;25.948;2022-12-07T14:30:24;80.20;;;32.97;;
71343;SDS011;59146;43.850;25.948;2022-12-07T14:32:58;70.95;;;34.30;;
71343;SDS011;59146;43.850;25.948;2022-12-07T14:35:26;75.93;;;34.83;;
71343;SDS011;59146;43.850;25.948;2022-12-07T14:37:52;73.75;;;33.75;;
71343;SDS011;59146;43.850;25.948;2022-12-07T14:40:25;78.72;;;34.47;;
71343;SDS011;59146;43.850;25.948;2022-12-07T14:43:11;71.43;;;34.65;;
71343;SDS011;59146;43.850;25.948;2022-12-07T14:45:39;71.80;;;37.85;;
71343;SDS011;59146;43.850;25.948;2022-12-07T14:48:05;77.07;;;39.72;;
71343;SDS011;59146;43.850;25.948;2022-12-07T14:50:34;71.60;;;38.53;;
71343;SDS011;59146;43.850;25.948;2022-12-07T14:53:04;88.35;;;40.63;;
71343;SDS011;59146;43.850;25.948;2022-12-07T14:55:36;82.55;;;39.55;;
71343;SDS011;59146;43.850;25.948;2022-12-07T14:58:01;83.78;;;40.88;;
71343;SDS011;59146;43.850;25.948;2022-12-07T15:00:27;72.25;;;37.28;;
71343;SDS011;59146;43.850;25.948;2022-12-07T15:02:53;77.40;;;39.05;;
71343;SDS011;59146;43.850;25.948;2022-12-07T15:05:19;79.55;;;37.45;;
71343;SDS011;59146;43.850;25.948;2022-12-07T15:07:57;85.40;;;42.13;;
71343;SDS011;59146;43.850;25.948;2022-12-07T15:10:26;82.93;;;41.53;;
71343;SDS011;59146;43.850;25.948;2022-12-07T15:12:55;104.13;;;42.42;;
71343;SDS011;59146;43.850;25.948;2022-12-07T15:15:41;83.40;;;41.58;;
71343;SDS011;59146;43.850;25.948;2022-12-07T15:18:06;86.55;;;43.05;;
71343;SDS011;59146;43.850;25.948;2022-12-07T15:20:32;81.18;;;40.10;;
71343;SDS011;59146;43.850;25.948;2022-12-07T15:22:58;75.50;;;38.47;;
71343;SDS011;59146;43.850;25.948;2022-12-07T15:25:23;74.78;;;37.08;;
71343;SDS011;59146;43.850;25.948;2022-12-07T15:27:49;77.38;;;38.50;;
71343;SDS011;59146;43.850;25.948;2022-12-07T15:30:14;84.05;;;39.63;;
71343;SDS011;59146;43.850;25.948;2022-12-07T15:32:40;82.45;;;38.40;;
71343;SDS011;59146;43.850;25.948;2022-12-07T15:35:05;79.10;;;41.72;;
71343;SDS011;59146;43.850;25.948;2022-12-07T15:37:31;73.28;;;36.83;;
71343;SDS011;59146;43.850;25.948;2022-12-07T15:39:56;72.63;;;37.15;;
71343;SDS011;59146;43.850;25.948;2022-12-07T15:42:22;82.80;;;39.03;;
71343;SDS011;59146;43.850;25.948;2022-12-07T15:44:47;79.45;;;38.38;;
71343;SDS011;59146;43.850;25.948;2022-12-07T15:47:35;81.03;;;36.60;;
71343;SDS011;59146;43.850;25.948;2022-12-07T15:50:04;84.68;;;38.08;;
71343;SDS011;59146;43.850;25.948;2022-12-07T15:52:31;76.65;;;38.63;;
71343;SDS011;59146;43.850;25.948;2022-12-07T15:54:57;84.43;;;38.13;;
71343;SDS011;59146;43.850;25.948;2022-12-07T15:57:22;78.35;;;38.35;;
71343;SDS011;59146;43.850;25.948;2022-12-07T15:59:48;83.38;;;41.13;;
71343;SDS011;59146;43.850;25.948;2022-12-07T16:02:13;71.65;;;37.90;;
71343;SDS011;59146;43.850;25.948;2022-12-07T16:04:39;85.25;;;41.67;;
71343;SDS011;59146;43.850;25.948;2022-12-07T16:07:04;77.70;;;38.83;;
71343;SDS011;59146;43.850;25.948;2022-12-07T16:09:30;74.55;;;36.88;;
71343;SDS011;59146;43.850;25.948;2022-12-07T16:11:56;75.95;;;38.25;;
71343;SDS011;59146;43.850;25.948;2022-12-07T16:14:21;75.57;;;38.33;;
71343;SDS011;59146;43.850;25.948;2022-12-07T16:16:47;79.75;;;37.63;;
71343;SDS011;59146;43.850;25.948;2022-12-07T16:19:12;76.68;;;37.50;;
71343;SDS011;59146;43.850;25.948;2022-12-07T16:21:38;68.50;;;34.58;;
71343;SDS011;59146;43.850;25.948;2022-12-07T16:24:04;75.57;;;36.83;;
71343;SDS011;59146;43.850;25.948;2022-12-07T16:26:31;69.18;;;35.83;;
71343;SDS011;59146;43.850;25.948;2022-12-07T16:28:56;76.60;;;35.42;;
71343;SDS011;59146;43.850;25.948;2022-12-07T16:31:23;73.68;;;36.22;;
71343;SDS011;59146;43.850;25.948;2022-12-07T16:33:52;76.43;;;34.35;;
71343;SDS011;59146;43.850;25.948;2022-12-07T16:36:19;81.78;;;35.35;;